EPZG/IEG METAR and TAF weather

Enter ICAO airport designator
Station Type Date Time Source
EPZG METAR 2019/10/20 18:30 UTC NOAA

EPZG 201830Z VRB01KT 8000 MIFG NSC 13/12 Q1013


Station Type Date Time Source
EPZG Decoded METAR 2019/10/20 18:30 UTC NOAA

Zielona Gora, Poland (EPZG) 51-56N 015-32E 192M
Oct 20, 2019 - 02:30 PM EDT / 2019.10.20 1830 UTC
Wind: Variable at 1 MPH (1 KT):0
Visibility: 4 mile(s):0
Weather: shallow fog
Temperature: 55 F (13 C)
Dew Point: 53 F (12 C)
Relative Humidity: 93%
Pressure (altimeter): 29.91 in. Hg (1013 hPa)
ob: EPZG 201830Z VRB01KT 8000 MIFG NSC 13/12 Q1013
cycle: 18

Station Type Date Time Source
EPZG TAF 2012/06/28 21:49 UTC NOAA

TAF EPZG 282000Z 2821/2906 VRB02KT CAVOK
TEMPO 2823/2904 5000 BR PROB30 2900/2904 1500 BR BKN005

Example: see airport list